Airfield :
LOGIN :

Register | Disclaimer

   EN    FR    IT 

 










Legend :    VFR   Marginal VFR   IFR   Intensive IFR   Very Intensive IFR
Visi :
Ceiling :
>= 8 km
>= 3000ft
5 to 8 km
1000 to 3000 ft
1500m to 5 km
500 to 1000 ft
800 to 1500m
200 to 500 ft
< 800m
< 200 ft
Symbols :   Thunderstorms  Fog  Heavy snow  Heavy precipitations  Wind > 20 kt
SIGMETs :     Misc.  Thunderstorms  Icing  Turbulence  Mountain Waves  Volcanic Ashes






- Airport Elevation : 51 ft
- IATA code : GWT


EDXW - Westerland-Sylt Island

CURRENT METAR :
  • 081020Z 31013KT 9999 FEW033 SCT048 16/08 Q1014

EXPIRED METARs :
  • 080950Z 29014KT 9999 FEW036 SCT047 14/06 Q1014
  • 080920Z 30014KT 9999 FEW036 SCT043 15/07 Q1013
  • 080850Z 30014KT 9999 FEW033 SCT040 15/07 Q1013
  • 080820Z 30015KT 9999 SCT031 14/07 Q1013

TAF TAF EDXW
Valid from the 08 at 09:00 until the 08 at 18:00 UTC


080800Z 0809/0818 30014G24KT 9999 SCT030



MET'MAP, your aeronautical weather chart ! - Copyright ORBIFLY December 2007 - Disclaimer

ORBIFLY MET'MAP TEAM :

Programming & Development : Alexandra Zaïnal
Concept & original design : Baudouin d'Aumeries
Assistance for programming : Marc-Olivier Méhu
Technical & hardware support : Manuel Goepfert

Contact : metmap@orbifly.com




SOURCES & CREDITS :

   NOAA